createdAt,value
2023-02-27T00:00:15.202Z,5.64
2023-02-27T00:02:46.868Z,6.11
2023-02-27T00:05:14.400Z,5.77
2023-02-27T00:07:41.849Z,5.61
2023-02-27T00:10:10.058Z,5.88
2023-02-27T00:12:38.608Z,5.83
2023-02-27T00:15:06.571Z,5.67
2023-02-27T00:17:36.408Z,5.27
2023-02-27T00:20:13.559Z,5.77
2023-02-27T00:22:41.424Z,5.89
2023-02-27T00:25:09.817Z,5.77
2023-02-27T00:27:37.097Z,5.93
2023-02-27T00:30:09.866Z,6.03
2023-02-27T00:32:36.832Z,6.02
2023-02-27T00:35:13.309Z,5.83
2023-02-27T00:37:47.321Z,5.27
2023-02-27T00:40:16.880Z,5.74
2023-02-27T00:42:49.573Z,5.73
2023-02-27T00:45:24.081Z,5.43
2023-02-27T00:47:58.677Z,5.68
2023-02-27T00:50:27.593Z,5.57
2023-02-27T00:52:54.444Z,5.37
2023-02-27T00:55:22.507Z,5.67
2023-02-27T00:57:57.250Z,5.33
2023-02-27T01:00:29.564Z,5.29
2023-02-27T01:02:56.660Z,5.54
2023-02-27T01:05:24.328Z,5.50
2023-02-27T01:07:54.478Z,5.44
2023-02-27T01:10:23.936Z,5.06
2023-02-27T01:12:54.069Z,5.46
2023-02-27T01:15:21.085Z,5.54
2023-02-27T01:17:49.376Z,5.30
2023-02-27T01:20:19.189Z,5.60
2023-02-27T01:22:46.357Z,5.81
2023-02-27T01:25:13.148Z,5.84
2023-02-27T01:27:43.476Z,5.60
2023-02-27T01:30:11.744Z,6.04
2023-02-27T01:32:41.026Z,5.51
2023-02-27T01:35:22.921Z,5.36
2023-02-27T01:37:50.695Z,5.11
2023-02-27T01:40:20.105Z,5.21
2023-02-27T01:42:47.306Z,5.31
2023-02-27T01:45:29.121Z,5.35
2023-02-27T01:48:28.377Z,5.28
2023-02-27T01:51:01.658Z,5.20
2023-02-27T01:53:31.044Z,5.37
2023-02-27T01:56:06.427Z,5.25
2023-02-27T01:58:34.033Z,4.99
2023-02-27T02:01:01.787Z,4.79
2023-02-27T02:03:54.816Z,4.88
2023-02-27T02:06:21.888Z,5.25
2023-02-27T02:08:49.745Z,5.32
2023-02-27T02:11:19.390Z,5.11
2023-02-27T02:13:46.567Z,5.30
2023-02-27T02:16:16.261Z,5.38
2023-02-27T02:19:01.450Z,5.35
2023-02-27T02:21:51.488Z,5.13
2023-02-27T02:24:27.577Z,5.20
2023-02-27T02:26:59.443Z,4.88
2023-02-27T02:29:50.866Z,5.05
2023-02-27T02:32:19.483Z,4.94
2023-02-27T02:35:24.108Z,4.68
2023-02-27T02:38:25.822Z,5.04
2023-02-27T02:40:55.565Z,5.03
2023-02-27T02:43:45.917Z,5.29
2023-02-27T02:46:27.744Z,4.82
2023-02-27T02:49:03.146Z,4.61
2023-02-27T02:51:35.214Z,4.87
2023-02-27T02:54:27.420Z,4.82
2023-02-27T02:57:07.335Z,4.57
2023-02-27T02:59:42.263Z,4.77
2023-02-27T03:02:12.356Z,4.75
2023-02-27T03:04:42.749Z,4.75
2023-02-27T03:07:20.391Z,4.67
2023-02-27T03:10:05.280Z,4.56
2023-02-27T03:12:33.892Z,4.64
2023-02-27T03:15:09.439Z,4.82
2023-02-27T03:17:59.702Z,4.96
2023-02-27T03:20:31.304Z,5.13
2023-02-27T03:23:01.822Z,5.13
2023-02-27T03:25:28.923Z,5.01
2023-02-27T03:28:01.004Z,5.19
2023-02-27T03:30:33.365Z,4.92
2023-02-27T03:33:17.435Z,5.09
2023-02-27T03:35:56.862Z,4.95
2023-02-27T03:38:38.610Z,4.80
2023-02-27T03:41:19.320Z,5.05
2023-02-27T03:43:57.681Z,4.93
2023-02-27T03:46:26.956Z,5.01
2023-02-27T03:48:54.091Z,5.25
2023-02-27T03:51:23.676Z,5.25
2023-02-27T03:54:13.733Z,5.21
2023-02-27T03:57:03.347Z,5.03
2023-02-27T03:59:31.836Z,5.10
2023-02-27T04:02:00.049Z,5.29
2023-02-27T04:04:28.126Z,5.61
2023-02-27T04:07:43.256Z,5.42
2023-02-27T04:10:25.241Z,5.37
2023-02-27T04:13:15.137Z,5.20
2023-02-27T04:16:00.801Z,5.42
2023-02-27T04:18:51.691Z,5.26
2023-02-27T04:21:33.604Z,5.34
2023-02-27T04:24:12.602Z,5.22
2023-02-27T04:26:57.271Z,5.37
2023-02-27T04:29:50.075Z,5.17
2023-02-27T04:32:26.504Z,5.50
2023-02-27T04:35:00.099Z,5.65
2023-02-27T04:37:37.779Z,5.48
2023-02-27T04:40:10.258Z,5.65
2023-02-27T04:42:43.423Z,5.69
2023-02-27T04:45:15.346Z,5.37
2023-02-27T04:47:53.712Z,5.57
2023-02-27T04:50:25.746Z,5.39
2023-02-27T04:53:00.233Z,5.52
2023-02-27T04:55:30.863Z,5.63
2023-02-27T04:58:19.291Z,5.69
2023-02-27T05:00:49.566Z,5.46
2023-02-27T05:03:22.095Z,5.37
2023-02-27T05:05:49.852Z,5.18
2023-02-27T05:08:39.304Z,5.46
2023-02-27T05:11:10.054Z,5.39
2023-02-27T05:14:02.668Z,5.56
2023-02-27T05:16:36.230Z,5.54
2023-02-27T05:19:03.748Z,5.63
2023-02-27T05:21:36.397Z,5.59
2023-02-27T05:24:41.080Z,5.51
2023-02-27T05:27:20.913Z,5.70
2023-02-27T05:29:59.521Z,5.21
2023-02-27T05:32:38.932Z,5.27
2023-02-27T05:35:18.716Z,5.26
2023-02-27T05:37:51.709Z,5.25
2023-02-27T05:40:23.000Z,5.47
2023-02-27T05:43:00.231Z,5.40
2023-02-27T05:45:30.106Z,5.34
2023-02-27T05:48:00.790Z,4.82
2023-02-27T05:50:30.870Z,5.41
2023-02-27T05:53:01.005Z,5.38
2023-02-27T05:55:33.967Z,5.31
2023-02-27T05:58:20.827Z,5.15
2023-02-27T06:01:06.386Z,5.40
2023-02-27T06:03:34.971Z,5.38
2023-02-27T06:06:05.046Z,5.16
2023-02-27T06:08:32.073Z,4.80
2023-02-27T06:10:59.002Z,5.10
2023-02-27T06:13:26.396Z,4.93
2023-02-27T06:15:53.494Z,5.13
2023-02-27T06:18:20.456Z,5.09
2023-02-27T06:20:47.481Z,5.14
2023-02-27T06:23:14.991Z,4.94
2023-02-27T06:25:44.632Z,4.94
2023-02-27T06:28:11.811Z,5.10
2023-02-27T06:30:38.862Z,5.36
2023-02-27T06:33:05.908Z,5.37
2023-02-27T06:35:41.725Z,5.51
2023-02-27T06:38:08.605Z,5.51
2023-02-27T06:40:35.311Z,5.43
2023-02-27T06:43:05.640Z,5.38
2023-02-27T06:45:32.457Z,5.30
2023-02-27T06:47:59.239Z,5.41
2023-02-27T06:50:26.110Z,5.30
2023-02-27T06:52:52.798Z,5.38
2023-02-27T06:55:22.640Z,5.44
2023-02-27T06:57:49.746Z,5.40
2023-02-27T07:00:17.169Z,5.10
2023-02-27T07:02:43.957Z,5.16
2023-02-27T07:05:13.556Z,5.35
2023-02-27T07:07:43.290Z,5.41
2023-02-27T07:10:15.498Z,5.29
2023-02-27T07:12:42.359Z,5.52
2023-02-27T07:15:09.377Z,5.69
2023-02-27T07:17:36.620Z,5.63
2023-02-27T07:20:04.594Z,5.54
2023-02-27T07:22:31.435Z,5.55
2023-02-27T07:25:06.057Z,5.42
2023-02-27T07:27:33.379Z,5.42
2023-02-27T07:30:02.915Z,5.62
2023-02-27T07:32:29.588Z,5.39
2023-02-27T07:34:56.379Z,5.25
2023-02-27T07:37:23.163Z,4.94
2023-02-27T07:39:50.616Z,5.22
2023-02-27T07:42:17.858Z,5.11
2023-02-27T07:44:44.560Z,4.70
2023-02-27T07:47:11.530Z,4.15
2023-02-27T07:49:38.332Z,4.47
2023-02-27T07:52:05.085Z,4.65
2023-02-27T07:54:39.317Z,4.66
2023-02-27T07:57:06.477Z,4.92
2023-02-27T07:59:33.382Z,5.32
2023-02-27T08:02:00.120Z,4.78
2023-02-27T08:04:26.850Z,6.50
2023-02-27T08:06:53.562Z,9.57
2023-02-27T08:09:20.289Z,11.92
2023-02-27T08:11:48.966Z,12.57
2023-02-27T08:14:16.121Z,14.83
2023-02-27T08:16:42.816Z,14.88
2023-02-27T08:19:09.495Z,16.30
2023-02-27T08:21:36.325Z,16.36
2023-02-27T08:24:03.069Z,15.40
2023-02-27T08:26:31.338Z,16.18
2023-02-27T08:28:58.533Z,15.40
2023-02-27T08:31:25.454Z,13.51
2023-02-27T08:34:01.052Z,13.45
2023-02-27T08:36:34.561Z,14.61
2023-02-27T08:39:01.295Z,15.92
2023-02-27T08:41:28.118Z,16.18
2023-02-27T08:43:54.997Z,13.71
2023-02-27T08:46:21.729Z,13.23
2023-02-27T08:48:48.406Z,12.45
2023-02-27T08:51:15.298Z,11.63
2023-02-27T08:53:41.965Z,10.54
2023-02-27T08:56:08.865Z,9.23
2023-02-27T08:58:36.019Z,9.46
2023-02-27T09:01:03.694Z,8.99
2023-02-27T09:03:31.393Z,8.61
2023-02-27T09:05:59.111Z,8.19
2023-02-27T09:08:25.900Z,9.06
2023-02-27T09:10:56.608Z,8.58
2023-02-27T09:13:23.456Z,8.70
2023-02-27T09:15:50.191Z,8.12
2023-02-27T09:18:24.869Z,7.71
2023-02-27T09:20:52.479Z,8.03
2023-02-27T09:23:21.574Z,7.55
2023-02-27T09:25:51.278Z,7.69
2023-02-27T09:28:18.201Z,8.38
2023-02-27T09:30:45.070Z,7.96
2023-02-27T09:33:11.845Z,7.62
2023-02-27T09:35:38.513Z,7.42
2023-02-27T09:38:05.537Z,7.64
2023-02-27T09:40:36.732Z,6.93
2023-02-27T09:43:14.681Z,7.26
2023-02-27T09:45:43.039Z,7.54
2023-02-27T09:48:35.369Z,7.28
2023-02-27T09:51:02.688Z,7.56
2023-02-27T09:53:35.779Z,7.30
2023-02-27T09:56:05.628Z,7.41
2023-02-27T09:58:43.381Z,7.61
2023-02-27T10:01:15.208Z,7.49
2023-02-27T10:04:52.992Z,7.35
2023-02-27T10:07:47.559Z,7.65
2023-02-27T10:10:25.092Z,6.72
2023-02-27T10:13:13.846Z,7.54
2023-02-27T10:15:54.946Z,7.72
2023-02-27T10:18:29.022Z,7.54
2023-02-27T10:21:07.928Z,7.12
2023-02-27T10:23:42.805Z,7.22
2023-02-27T10:26:30.228Z,7.60
2023-02-27T10:28:59.758Z,7.46
2023-02-27T10:31:32.179Z,7.06
2023-02-27T10:34:03.659Z,7.28
2023-02-27T10:36:34.765Z,7.65
2023-02-27T10:39:09.209Z,7.41
2023-02-27T10:41:36.759Z,7.26
2023-02-27T10:44:04.089Z,7.11
2023-02-27T10:46:33.120Z,7.10
2023-02-27T10:49:01.865Z,7.45
2023-02-27T10:51:31.789Z,7.45
2023-02-27T10:54:21.562Z,7.11
2023-02-27T10:56:51.031Z,7.19
2023-02-27T10:59:28.729Z,7.79
2023-02-27T11:01:57.960Z,7.45
2023-02-27T11:04:26.451Z,7.99
2023-02-27T11:06:54.434Z,7.85
2023-02-27T11:09:32.155Z,7.74
2023-02-27T11:12:29.017Z,7.64
2023-02-27T11:15:16.046Z,7.61
2023-02-27T11:17:43.773Z,7.90
2023-02-27T11:20:32.348Z,7.70
2023-02-27T11:23:07.130Z,7.97
2023-02-27T11:25:34.098Z,8.14
2023-02-27T11:28:19.421Z,8.40
2023-02-27T11:31:05.647Z,8.32
2023-02-27T11:33:36.280Z,8.02
2023-02-27T11:36:03.787Z,7.67
2023-02-27T11:38:31.515Z,7.62
2023-02-27T11:41:04.491Z,7.78
2023-02-27T11:43:42.744Z,7.38
2023-02-27T11:46:47.266Z,8.07
2023-02-27T11:49:10.338Z,8.24
2023-02-27T11:52:02.023Z,8.56
2023-02-27T11:54:34.750Z,8.13
2023-02-27T11:57:13.286Z,7.98
2023-02-27T11:59:43.540Z,7.98
2023-02-27T12:02:24.941Z,8.27
2023-02-27T12:05:16.843Z,8.81
2023-02-27T12:08:01.540Z,8.74
2023-02-27T12:10:31.326Z,8.66
2023-02-27T12:13:10.336Z,8.33
2023-02-27T12:15:40.106Z,8.97
2023-02-27T12:18:20.369Z,8.41
2023-02-27T12:20:58.020Z,8.95
2023-02-27T12:23:31.836Z,8.49
2023-02-27T12:26:12.969Z,8.69
2023-02-27T12:28:50.337Z,8.87
2023-02-27T12:31:32.879Z,8.61
2023-02-27T12:34:09.303Z,8.96
2023-02-27T12:36:36.254Z,8.78
2023-02-27T12:39:04.815Z,8.29
2023-02-27T12:41:44.050Z,8.50
2023-02-27T12:44:28.482Z,8.37
2023-02-27T12:47:13.478Z,8.41
2023-02-27T12:49:55.153Z,8.91
2023-02-27T12:52:43.675Z,8.61
2023-02-27T12:55:15.444Z,8.33
2023-02-27T12:58:01.129Z,8.47
2023-02-27T13:00:38.714Z,8.08
2023-02-27T13:03:13.115Z,8.16
2023-02-27T13:05:49.663Z,8.63
2023-02-27T13:08:47.802Z,8.46
2023-02-27T13:11:27.492Z,8.51
2023-02-27T13:14:25.563Z,8.33
2023-02-27T13:17:14.426Z,8.71
2023-02-27T13:19:48.293Z,8.66
2023-02-27T13:22:52.359Z,8.95
2023-02-27T13:25:21.764Z,8.87
2023-02-27T13:28:02.272Z,8.24
2023-02-27T13:30:49.753Z,8.47
2023-02-27T13:33:22.641Z,8.35
2023-02-27T13:35:56.727Z,8.74
2023-02-27T13:38:46.540Z,8.81
2023-02-27T13:41:27.889Z,8.59
2023-02-27T13:44:00.090Z,8.37
2023-02-27T13:46:28.332Z,9.33
2023-02-27T13:49:06.047Z,9.29
2023-02-27T13:51:36.120Z,8.80
2023-02-27T13:54:17.875Z,9.54
2023-02-27T13:56:47.701Z,9.66
2023-02-27T13:59:37.074Z,9.03
2023-02-27T14:02:49.448Z,8.41
2023-02-27T14:05:31.006Z,8.60
2023-02-27T14:08:20.484Z,8.74
2023-02-27T14:11:16.120Z,8.99
2023-02-27T14:13:54.569Z,8.97
2023-02-27T14:16:44.210Z,9.16
2023-02-27T14:19:19.752Z,9.86
2023-02-27T14:22:11.657Z,9.28
2023-02-27T14:25:01.088Z,9.07
2023-02-27T14:27:55.209Z,9.18
2023-02-27T14:30:41.099Z,9.16
2023-02-27T14:33:47.074Z,9.23
2023-02-27T14:36:25.990Z,8.92
2023-02-27T14:38:57.970Z,8.79
2023-02-27T14:41:52.423Z,8.74
2023-02-27T14:44:24.763Z,9.19
2023-02-27T14:46:54.219Z,9.00
2023-02-27T14:49:27.751Z,9.28
2023-02-27T14:51:55.289Z,9.17
2023-02-27T14:54:27.475Z,8.90
2023-02-27T14:57:05.573Z,8.93
2023-02-27T14:59:41.163Z,8.48
2023-02-27T15:02:26.298Z,8.65
2023-02-27T15:04:56.780Z,8.78
2023-02-27T15:07:28.658Z,8.83
2023-02-27T15:09:58.369Z,9.01
2023-02-27T15:12:26.683Z,8.85
2023-02-27T15:14:59.267Z,9.09
2023-02-27T15:17:28.646Z,8.71
2023-02-27T15:19:57.636Z,9.31
2023-02-27T15:22:38.535Z,8.77
2023-02-27T15:25:07.849Z,8.73
2023-02-27T15:27:37.181Z,8.52
2023-02-27T15:30:05.002Z,8.37
2023-02-27T15:32:38.437Z,9.07
2023-02-27T15:35:12.411Z,8.49
2023-02-27T15:37:39.272Z,8.42
2023-02-27T15:40:10.804Z,8.71
2023-02-27T15:42:37.642Z,8.67
2023-02-27T15:45:06.341Z,8.20
2023-02-27T15:47:33.702Z,8.67
2023-02-27T15:50:23.370Z,8.20
2023-02-27T15:53:09.840Z,8.46
2023-02-27T15:55:56.160Z,8.30
2023-02-27T15:58:25.877Z,8.28
2023-02-27T16:01:12.036Z,8.75
2023-02-27T16:03:42.740Z,8.36
2023-02-27T16:06:15.242Z,8.51
2023-02-27T16:08:46.718Z,8.80
2023-02-27T16:11:25.364Z,8.99
2023-02-27T16:13:52.819Z,8.92
2023-02-27T16:16:22.490Z,8.81
2023-02-27T16:18:52.032Z,9.28
2023-02-27T16:21:21.339Z,8.79
2023-02-27T16:23:48.626Z,8.36
2023-02-27T16:26:15.274Z,8.52
2023-02-27T16:28:41.914Z,8.43
2023-02-27T16:31:28.553Z,8.21
2023-02-27T16:33:57.515Z,8.43
2023-02-27T16:36:27.280Z,8.54
2023-02-27T16:38:54.574Z,9.09
2023-02-27T16:41:22.997Z,8.62
2023-02-27T16:43:50.978Z,8.46
2023-02-27T16:46:21.652Z,8.80
2023-02-27T16:48:53.897Z,8.37
2023-02-27T16:51:24.186Z,8.57
2023-02-27T16:53:55.762Z,8.65
2023-02-27T16:56:37.393Z,9.06
2023-02-27T16:59:05.558Z,9.08
2023-02-27T17:01:34.079Z,8.77
2023-02-27T17:04:01.339Z,9.35
2023-02-27T17:06:28.990Z,8.84
2023-02-27T17:08:58.026Z,9.06
2023-02-27T17:11:24.780Z,9.27
2023-02-27T17:13:52.172Z,8.50
2023-02-27T17:16:21.309Z,9.00
2023-02-27T17:18:48.224Z,9.05
2023-02-27T17:21:14.966Z,8.97
2023-02-27T17:23:41.800Z,8.90
2023-02-27T17:26:11.606Z,8.89
2023-02-27T17:28:41.812Z,8.21
2023-02-27T17:31:12.920Z,8.23
2023-02-27T17:33:39.676Z,8.61
2023-02-27T17:36:08.658Z,8.68
2023-02-27T17:38:35.584Z,9.06
2023-02-27T17:41:14.228Z,8.43
2023-02-27T17:43:41.800Z,8.72
2023-02-27T17:46:10.559Z,8.75
2023-02-27T17:48:38.508Z,8.73
2023-02-27T17:51:06.855Z,8.88
2023-02-27T17:53:34.988Z,8.67
2023-02-27T17:56:02.755Z,8.02
2023-02-27T17:58:29.633Z,8.67
2023-02-27T18:01:07.314Z,8.64
2023-02-27T18:03:34.781Z,8.67
2023-02-27T18:06:01.720Z,8.55
2023-02-27T18:08:28.962Z,8.54
2023-02-27T18:10:55.658Z,8.32
2023-02-27T18:13:22.657Z,8.56
2023-02-27T18:15:52.518Z,8.64
2023-02-27T18:18:20.338Z,8.64
2023-02-27T18:20:47.527Z,8.57
2023-02-27T18:23:15.549Z,8.40
2023-02-27T18:25:42.549Z,8.15
2023-02-27T18:28:11.054Z,8.34
2023-02-27T18:30:39.193Z,8.00
2023-02-27T18:33:06.275Z,8.32
2023-02-27T18:35:33.162Z,8.34
2023-02-27T18:38:02.296Z,8.78
2023-02-27T18:40:30.592Z,8.10
2023-02-27T18:42:57.503Z,7.99
2023-02-27T18:45:24.848Z,8.26
2023-02-27T18:47:53.043Z,8.06
2023-02-27T18:50:19.961Z,8.23
2023-02-27T18:52:47.410Z,8.54
2023-02-27T18:55:14.859Z,8.45
2023-02-27T18:57:41.698Z,8.29
2023-02-27T19:00:09.579Z,8.41
2023-02-27T19:02:41.689Z,7.98
2023-02-27T19:05:11.237Z,8.47
2023-02-27T19:07:39.011Z,8.13
2023-02-27T19:10:07.475Z,8.03
2023-02-27T19:12:35.062Z,7.98
2023-02-27T19:15:02.128Z,8.20
2023-02-27T19:17:28.962Z,8.18
2023-02-27T19:19:55.820Z,8.10
2023-02-27T19:22:22.589Z,7.88
2023-02-27T19:24:50.188Z,7.16
2023-02-27T19:27:17.278Z,7.68
2023-02-27T19:29:44.151Z,7.78
2023-02-27T19:32:11.709Z,7.80
2023-02-27T19:34:38.699Z,7.85
2023-02-27T19:37:05.480Z,8.10
2023-02-27T19:39:32.467Z,7.86
2023-02-27T19:41:59.341Z,7.95
2023-02-27T19:44:26.785Z,8.27
2023-02-27T19:46:53.817Z,8.24
2023-02-27T19:49:20.985Z,8.30
2023-02-27T19:51:48.993Z,8.54
2023-02-27T19:54:17.251Z,8.54
2023-02-27T19:56:44.065Z,8.58
2023-02-27T19:59:11.921Z,8.33
2023-02-27T20:01:39.403Z,8.40
2023-02-27T20:04:08.009Z,8.27
2023-02-27T20:06:44.021Z,7.97
2023-02-27T20:09:14.554Z,8.15
2023-02-27T20:11:46.024Z,8.02
2023-02-27T20:14:17.378Z,8.32
2023-02-27T20:16:44.915Z,8.37
2023-02-27T20:19:17.472Z,8.05
2023-02-27T20:21:45.582Z,7.76
2023-02-27T20:24:14.345Z,8.33
2023-02-27T20:26:43.400Z,8.35
2023-02-27T20:29:12.880Z,7.90
2023-02-27T20:31:42.403Z,7.99
2023-02-27T20:34:11.460Z,8.08
2023-02-27T20:36:39.610Z,7.82
2023-02-27T20:39:07.470Z,7.86
2023-02-27T20:41:35.493Z,7.82
2023-02-27T20:44:03.298Z,8.01
2023-02-27T20:46:30.644Z,7.95
2023-02-27T20:49:00.220Z,7.91
2023-02-27T20:51:29.707Z,7.94
2023-02-27T20:53:59.233Z,8.05
2023-02-27T20:56:31.574Z,7.63
2023-02-27T20:58:59.813Z,7.49
2023-02-27T21:01:27.538Z,7.70
2023-02-27T21:03:57.463Z,7.76
2023-02-27T21:06:25.110Z,7.59
2023-02-27T21:08:54.367Z,7.60
2023-02-27T21:11:27.753Z,7.64
2023-02-27T21:13:58.487Z,7.46
2023-02-27T21:16:25.902Z,7.65
2023-02-27T21:18:53.370Z,7.61
2023-02-27T21:21:25.578Z,7.65
2023-02-27T21:23:52.367Z,7.55
2023-02-27T21:26:28.797Z,7.70
2023-02-27T21:28:58.493Z,7.96
2023-02-27T21:31:28.079Z,7.66
2023-02-27T21:33:55.375Z,7.81
2023-02-27T21:36:36.224Z,7.82
2023-02-27T21:39:12.897Z,7.40
2023-02-27T21:41:39.799Z,7.84
2023-02-27T21:44:11.584Z,7.78
2023-02-27T21:46:38.627Z,7.83
2023-02-27T21:49:14.983Z,8.10
2023-02-27T21:51:42.054Z,7.94
2023-02-27T21:54:13.639Z,7.91
2023-02-27T21:56:41.911Z,7.77
2023-02-27T21:59:09.271Z,7.89
2023-02-27T22:01:36.958Z,7.88
2023-02-27T22:04:04.228Z,7.79
2023-02-27T22:06:32.279Z,7.92
2023-02-27T22:09:01.372Z,7.94
2023-02-27T22:11:29.363Z,7.88
2023-02-27T22:13:57.045Z,7.86
2023-02-27T22:16:37.230Z,7.75
2023-02-27T22:19:08.798Z,7.39
2023-02-27T22:21:39.815Z,7.62
2023-02-27T22:24:16.386Z,7.29
2023-02-27T22:26:44.693Z,7.28
2023-02-27T22:29:15.859Z,7.29
2023-02-27T22:31:45.643Z,7.48
2023-02-27T22:34:26.328Z,7.39
2023-02-27T22:36:55.114Z,7.06
2023-02-27T22:39:22.126Z,7.11
2023-02-27T22:41:48.929Z,7.09
2023-02-27T22:44:16.401Z,7.44
2023-02-27T22:46:45.838Z,7.52
2023-02-27T22:49:21.205Z,7.54
2023-02-27T22:51:51.643Z,7.57
2023-02-27T22:54:23.100Z,7.54
2023-02-27T22:56:51.978Z,7.59
2023-02-27T22:59:26.215Z,7.59
2023-02-27T23:01:58.792Z,7.58
2023-02-27T23:04:29.879Z,7.50
2023-02-27T23:06:57.616Z,7.47
2023-02-27T23:09:26.151Z,7.50
2023-02-27T23:11:53.665Z,7.52
2023-02-27T23:14:21.524Z,7.49
2023-02-27T23:16:48.410Z,7.46
2023-02-27T23:19:17.567Z,7.38
2023-02-27T23:21:44.844Z,7.32
2023-02-27T23:24:14.332Z,7.33
2023-02-27T23:26:44.236Z,7.37
2023-02-27T23:29:11.575Z,7.33
2023-02-27T23:31:38.792Z,7.34
2023-02-27T23:34:06.509Z,7.35
2023-02-27T23:36:34.968Z,7.39
2023-02-27T23:39:05.285Z,7.31
2023-02-27T23:41:51.325Z,7.24
2023-02-27T23:44:20.052Z,7.34
2023-02-27T23:46:47.194Z,7.10
2023-02-27T23:49:14.908Z,7.19
2023-02-27T23:51:46.681Z,7.12
2023-02-27T23:54:13.735Z,7.03
2023-02-27T23:56:40.424Z,6.94
2023-02-27T23:59:07.614Z,7.01
